sensor_id;sensor_type;location;lat;lon;timestamp;P1;durP1;ratioP1;P2;durP2;ratioP2
60730;SDS011;46580;52.114;11.674;2022-12-07T00:01:06;18.07;;;10.43;;
60730;SDS011;46580;52.114;11.674;2022-12-07T00:03:33;19.83;;;9.70;;
60730;SDS011;46580;52.114;11.674;2022-12-07T00:05:59;17.20;;;10.20;;
60730;SDS011;46580;52.114;11.674;2022-12-07T00:08:26;20.07;;;9.80;;
60730;SDS011;46580;52.114;11.674;2022-12-07T00:10:51;22.17;;;11.17;;
60730;SDS011;46580;52.114;11.674;2022-12-07T00:13:17;20.03;;;9.73;;
60730;SDS011;46580;52.114;11.674;2022-12-07T00:15:42;25.00;;;11.57;;
60730;SDS011;46580;52.114;11.674;2022-12-07T00:18:08;17.23;;;10.40;;
60730;SDS011;46580;52.114;11.674;2022-12-07T00:20:33;20.67;;;10.80;;
60730;SDS011;46580;52.114;11.674;2022-12-07T00:22:59;21.53;;;10.63;;
60730;SDS011;46580;52.114;11.674;2022-12-07T00:25:24;19.03;;;9.93;;
60730;SDS011;46580;52.114;11.674;2022-12-07T00:27:51;22.87;;;11.27;;
60730;SDS011;46580;52.114;11.674;2022-12-07T00:30:18;24.47;;;11.43;;
60730;SDS011;46580;52.114;11.674;2022-12-07T00:32:43;22.70;;;11.60;;
60730;SDS011;46580;52.114;11.674;2022-12-07T00:35:09;17.97;;;10.23;;
60730;SDS011;46580;52.114;11.674;2022-12-07T00:37:35;20.27;;;11.47;;
60730;SDS011;46580;52.114;11.674;2022-12-07T00:40:00;19.23;;;10.77;;
60730;SDS011;46580;52.114;11.674;2022-12-07T00:42:26;23.13;;;11.23;;
60730;SDS011;46580;52.114;11.674;2022-12-07T00:44:51;19.97;;;10.77;;
60730;SDS011;46580;52.114;11.674;2022-12-07T00:47:16;18.67;;;11.07;;
60730;SDS011;46580;52.114;11.674;2022-12-07T00:49:42;21.17;;;11.27;;
60730;SDS011;46580;52.114;11.674;2022-12-07T00:52:07;21.93;;;11.43;;
60730;SDS011;46580;52.114;11.674;2022-12-07T00:54:32;20.97;;;10.90;;
60730;SDS011;46580;52.114;11.674;2022-12-07T00:56:58;21.03;;;11.03;;
60730;SDS011;46580;52.114;11.674;2022-12-07T00:59:24;22.27;;;11.47;;
60730;SDS011;46580;52.114;11.674;2022-12-07T01:01:49;20.93;;;11.97;;
60730;SDS011;46580;52.114;11.674;2022-12-07T01:04:14;21.13;;;10.73;;
60730;SDS011;46580;52.114;11.674;2022-12-07T01:06:40;21.50;;;11.20;;
60730;SDS011;46580;52.114;11.674;2022-12-07T01:09:05;23.17;;;11.37;;
60730;SDS011;46580;52.114;11.674;2022-12-07T01:11:31;21.40;;;10.13;;
60730;SDS011;46580;52.114;11.674;2022-12-07T01:13:57;18.13;;;10.47;;
60730;SDS011;46580;52.114;11.674;2022-12-07T01:16:26;20.60;;;10.33;;
60730;SDS011;46580;52.114;11.674;2022-12-07T01:18:54;24.37;;;11.83;;
60730;SDS011;46580;52.114;11.674;2022-12-07T01:21:25;20.70;;;11.07;;
60730;SDS011;46580;52.114;11.674;2022-12-07T01:23:52;20.37;;;10.77;;
60730;SDS011;46580;52.114;11.674;2022-12-07T01:26:19;20.57;;;11.20;;
60730;SDS011;46580;52.114;11.674;2022-12-07T01:28:46;20.10;;;10.97;;
60730;SDS011;46580;52.114;11.674;2022-12-07T01:31:13;20.40;;;11.37;;
60730;SDS011;46580;52.114;11.674;2022-12-07T01:33:41;22.07;;;11.27;;
60730;SDS011;46580;52.114;11.674;2022-12-07T01:36:08;23.13;;;12.10;;
60730;SDS011;46580;52.114;11.674;2022-12-07T01:38:37;22.50;;;12.37;;
60730;SDS011;46580;52.114;11.674;2022-12-07T01:41:03;21.00;;;11.93;;
60730;SDS011;46580;52.114;11.674;2022-12-07T01:43:30;21.93;;;12.10;;
60730;SDS011;46580;52.114;11.674;2022-12-07T01:45:56;18.17;;;10.07;;
60730;SDS011;46580;52.114;11.674;2022-12-07T01:48:43;20.30;;;10.77;;
60730;SDS011;46580;52.114;11.674;2022-12-07T01:51:09;19.07;;;11.10;;
60730;SDS011;46580;52.114;11.674;2022-12-07T01:53:38;20.87;;;10.93;;
60730;SDS011;46580;52.114;11.674;2022-12-07T01:56:06;22.80;;;12.47;;
60730;SDS011;46580;52.114;11.674;2022-12-07T01:58:35;18.63;;;11.00;;
60730;SDS011;46580;52.114;11.674;2022-12-07T02:01:02;18.20;;;10.30;;
60730;SDS011;46580;52.114;11.674;2022-12-07T02:03:34;17.70;;;10.23;;
60730;SDS011;46580;52.114;11.674;2022-12-07T02:06:04;18.17;;;11.00;;
60730;SDS011;46580;52.114;11.674;2022-12-07T02:08:30;16.47;;;9.30;;
60730;SDS011;46580;52.114;11.674;2022-12-07T02:10:56;17.07;;;10.23;;
60730;SDS011;46580;52.114;11.674;2022-12-07T02:13:23;15.77;;;9.80;;
60730;SDS011;46580;52.114;11.674;2022-12-07T02:30:15;14.53;;;9.60;;
60730;SDS011;46580;52.114;11.674;2022-12-07T02:32:49;19.00;;;10.07;;
60730;SDS011;46580;52.114;11.674;2022-12-07T02:43:12;15.03;;;9.67;;
60730;SDS011;46580;52.114;11.674;2022-12-07T02:45:41;15.13;;;8.80;;
60730;SDS011;46580;52.114;11.674;2022-12-07T02:48:10;19.97;;;11.40;;
60730;SDS011;46580;52.114;11.674;2022-12-07T02:50:38;17.57;;;10.53;;
60730;SDS011;46580;52.114;11.674;2022-12-07T02:53:04;16.37;;;9.70;;
60730;SDS011;46580;52.114;11.674;2022-12-07T02:55:31;22.47;;;10.63;;
60730;SDS011;46580;52.114;11.674;2022-12-07T03:00:40;18.07;;;10.03;;
60730;SDS011;46580;52.114;11.674;2022-12-07T03:03:14;19.20;;;10.80;;
60730;SDS011;46580;52.114;11.674;2022-12-07T03:05:44;19.17;;;10.37;;
60730;SDS011;46580;52.114;11.674;2022-12-07T03:11:08;21.47;;;10.27;;
60730;SDS011;46580;52.114;11.674;2022-12-07T03:13:59;19.27;;;10.53;;
60730;SDS011;46580;52.114;11.674;2022-12-07T03:16:46;20.07;;;10.73;;
60730;SDS011;46580;52.114;11.674;2022-12-07T03:19:33;19.10;;;9.27;;
60730;SDS011;46580;52.114;11.674;2022-12-07T03:22:00;19.70;;;10.87;;
60730;SDS011;46580;52.114;11.674;2022-12-07T03:24:36;20.47;;;10.87;;
60730;SDS011;46580;52.114;11.674;2022-12-07T03:27:13;20.57;;;10.13;;
60730;SDS011;46580;52.114;11.674;2022-12-07T03:29:45;21.23;;;10.03;;
60730;SDS011;46580;52.114;11.674;2022-12-07T03:32:20;21.30;;;11.83;;
60730;SDS011;46580;52.114;11.674;2022-12-07T03:34:58;23.17;;;11.87;;
60730;SDS011;46580;52.114;11.674;2022-12-07T03:37:34;19.93;;;10.97;;
60730;SDS011;46580;52.114;11.674;2022-12-07T03:42:54;21.50;;;12.40;;
60730;SDS011;46580;52.114;11.674;2022-12-07T03:45:22;24.80;;;11.63;;
60730;SDS011;46580;52.114;11.674;2022-12-07T03:48:02;22.60;;;11.83;;
60730;SDS011;46580;52.114;11.674;2022-12-07T03:53:15;21.90;;;12.20;;
60730;SDS011;46580;52.114;11.674;2022-12-07T03:55:45;24.10;;;12.07;;
60730;SDS011;46580;52.114;11.674;2022-12-07T03:58:14;21.97;;;13.13;;
60730;SDS011;46580;52.114;11.674;2022-12-07T04:00:42;24.50;;;11.67;;
60730;SDS011;46580;52.114;11.674;2022-12-07T04:03:08;26.67;;;13.33;;
60730;SDS011;46580;52.114;11.674;2022-12-07T04:05:34;25.00;;;12.83;;
60730;SDS011;46580;52.114;11.674;2022-12-07T04:08:00;22.03;;;11.73;;
60730;SDS011;46580;52.114;11.674;2022-12-07T04:10:25;24.03;;;12.77;;
60730;SDS011;46580;52.114;11.674;2022-12-07T04:12:50;24.57;;;14.00;;
60730;SDS011;46580;52.114;11.674;2022-12-07T04:15:16;22.87;;;13.20;;
60730;SDS011;46580;52.114;11.674;2022-12-07T04:17:41;26.33;;;13.73;;
60730;SDS011;46580;52.114;11.674;2022-12-07T04:20:07;24.60;;;14.17;;
60730;SDS011;46580;52.114;11.674;2022-12-07T04:22:33;22.60;;;13.37;;
60730;SDS011;46580;52.114;11.674;2022-12-07T04:24:58;23.80;;;14.13;;
60730;SDS011;46580;52.114;11.674;2022-12-07T04:27:23;23.57;;;14.23;;
60730;SDS011;46580;52.114;11.674;2022-12-07T04:29:49;22.63;;;12.93;;
60730;SDS011;46580;52.114;11.674;2022-12-07T04:32:14;24.67;;;13.33;;
60730;SDS011;46580;52.114;11.674;2022-12-07T04:34:40;23.63;;;13.33;;
60730;SDS011;46580;52.114;11.674;2022-12-07T04:37:05;22.67;;;13.37;;
60730;SDS011;46580;52.114;11.674;2022-12-07T04:39:31;27.47;;;14.57;;
60730;SDS011;46580;52.114;11.674;2022-12-07T04:41:57;25.33;;;14.60;;
60730;SDS011;46580;52.114;11.674;2022-12-07T04:44:24;25.20;;;15.20;;
60730;SDS011;46580;52.114;11.674;2022-12-07T04:46:50;27.40;;;15.07;;
60730;SDS011;46580;52.114;11.674;2022-12-07T04:49:16;28.13;;;16.23;;
60730;SDS011;46580;52.114;11.674;2022-12-07T04:51:43;27.90;;;16.73;;
60730;SDS011;46580;52.114;11.674;2022-12-07T04:54:09;26.07;;;15.10;;
60730;SDS011;46580;52.114;11.674;2022-12-07T04:56:35;27.27;;;15.00;;
60730;SDS011;46580;52.114;11.674;2022-12-07T04:59:01;27.17;;;16.20;;
60730;SDS011;46580;52.114;11.674;2022-12-07T05:01:27;28.20;;;16.27;;
60730;SDS011;46580;52.114;11.674;2022-12-07T05:03:53;24.40;;;15.23;;
60730;SDS011;46580;52.114;11.674;2022-12-07T05:06:18;28.00;;;15.73;;
60730;SDS011;46580;52.114;11.674;2022-12-07T05:08:44;25.10;;;15.70;;
60730;SDS011;46580;52.114;11.674;2022-12-07T05:11:10;27.60;;;15.40;;
60730;SDS011;46580;52.114;11.674;2022-12-07T05:13:54;27.90;;;15.63;;
60730;SDS011;46580;52.114;11.674;2022-12-07T05:16:19;27.23;;;15.40;;
60730;SDS011;46580;52.114;11.674;2022-12-07T05:18:45;25.00;;;15.57;;
60730;SDS011;46580;52.114;11.674;2022-12-07T05:21:10;26.50;;;15.60;;
60730;SDS011;46580;52.114;11.674;2022-12-07T05:23:36;25.50;;;15.83;;
60730;SDS011;46580;52.114;11.674;2022-12-07T05:26:01;24.63;;;15.10;;
60730;SDS011;46580;52.114;11.674;2022-12-07T05:28:26;28.50;;;15.27;;
60730;SDS011;46580;52.114;11.674;2022-12-07T05:30:52;28.07;;;16.37;;
60730;SDS011;46580;52.114;11.674;2022-12-07T05:33:17;27.87;;;14.83;;
60730;SDS011;46580;52.114;11.674;2022-12-07T05:35:42;24.20;;;14.30;;
60730;SDS011;46580;52.114;11.674;2022-12-07T05:38:08;25.33;;;14.53;;
60730;SDS011;46580;52.114;11.674;2022-12-07T05:40:33;27.33;;;14.67;;
60730;SDS011;46580;52.114;11.674;2022-12-07T05:42:58;25.90;;;15.47;;
60730;SDS011;46580;52.114;11.674;2022-12-07T05:45:24;25.37;;;14.33;;
60730;SDS011;46580;52.114;11.674;2022-12-07T05:47:49;26.60;;;13.67;;
60730;SDS011;46580;52.114;11.674;2022-12-07T05:50:14;24.67;;;14.03;;
60730;SDS011;46580;52.114;11.674;2022-12-07T05:52:40;23.97;;;14.23;;
60730;SDS011;46580;52.114;11.674;2022-12-07T05:55:05;20.77;;;13.37;;
60730;SDS011;46580;52.114;11.674;2022-12-07T05:57:32;22.23;;;13.53;;
60730;SDS011;46580;52.114;11.674;2022-12-07T05:59:57;24.43;;;14.70;;
60730;SDS011;46580;52.114;11.674;2022-12-07T06:02:22;21.93;;;12.97;;
60730;SDS011;46580;52.114;11.674;2022-12-07T06:04:48;25.93;;;13.73;;
60730;SDS011;46580;52.114;11.674;2022-12-07T06:07:14;24.63;;;13.60;;
60730;SDS011;46580;52.114;11.674;2022-12-07T06:09:41;23.37;;;14.60;;
60730;SDS011;46580;52.114;11.674;2022-12-07T06:12:06;21.10;;;12.40;;
60730;SDS011;46580;52.114;11.674;2022-12-07T06:14:53;24.07;;;14.50;;
60730;SDS011;46580;52.114;11.674;2022-12-07T06:17:19;25.43;;;14.13;;
60730;SDS011;46580;52.114;11.674;2022-12-07T06:19:44;24.97;;;14.67;;
60730;SDS011;46580;52.114;11.674;2022-12-07T06:22:10;24.30;;;14.63;;
60730;SDS011;46580;52.114;11.674;2022-12-07T06:24:36;24.93;;;15.63;;
60730;SDS011;46580;52.114;11.674;2022-12-07T06:27:02;23.30;;;14.13;;
60730;SDS011;46580;52.114;11.674;2022-12-07T06:29:28;25.07;;;15.13;;
60730;SDS011;46580;52.114;11.674;2022-12-07T06:31:53;22.37;;;14.37;;
60730;SDS011;46580;52.114;11.674;2022-12-07T06:34:19;31.93;;;18.60;;
60730;SDS011;46580;52.114;11.674;2022-12-07T06:36:48;25.07;;;13.70;;
60730;SDS011;46580;52.114;11.674;2022-12-07T06:39:17;22.53;;;14.33;;
60730;SDS011;46580;52.114;11.674;2022-12-07T06:41:44;22.70;;;13.50;;
60730;SDS011;46580;52.114;11.674;2022-12-07T06:44:10;19.87;;;13.13;;
60730;SDS011;46580;52.114;11.674;2022-12-07T06:46:36;19.17;;;11.83;;
60730;SDS011;46580;52.114;11.674;2022-12-07T06:49:02;22.23;;;11.87;;
60730;SDS011;46580;52.114;11.674;2022-12-07T06:51:28;18.20;;;11.67;;
60730;SDS011;46580;52.114;11.674;2022-12-07T06:53:54;17.90;;;11.30;;
60730;SDS011;46580;52.114;11.674;2022-12-07T06:56:20;16.80;;;11.17;;
60730;SDS011;46580;52.114;11.674;2022-12-07T06:58:45;20.20;;;10.43;;
60730;SDS011;46580;52.114;11.674;2022-12-07T07:01:12;16.07;;;9.73;;
60730;SDS011;46580;52.114;11.674;2022-12-07T07:03:39;14.47;;;10.20;;
60730;SDS011;46580;52.114;11.674;2022-12-07T07:06:05;20.73;;;9.57;;
60730;SDS011;46580;52.114;11.674;2022-12-07T07:08:32;18.57;;;10.83;;
60730;SDS011;46580;52.114;11.674;2022-12-07T07:10:58;16.27;;;9.10;;
60730;SDS011;46580;52.114;11.674;2022-12-07T07:13:23;11.63;;;7.23;;
60730;SDS011;46580;52.114;11.674;2022-12-07T07:15:49;11.83;;;7.73;;
60730;SDS011;46580;52.114;11.674;2022-12-07T07:18:14;9.63;;;5.90;;
60730;SDS011;46580;52.114;11.674;2022-12-07T07:20:39;12.63;;;6.03;;
60730;SDS011;46580;52.114;11.674;2022-12-07T07:23:05;13.57;;;6.93;;
60730;SDS011;46580;52.114;11.674;2022-12-07T07:25:31;8.90;;;6.23;;
60730;SDS011;46580;52.114;11.674;2022-12-07T07:27:57;13.53;;;6.43;;
60730;SDS011;46580;52.114;11.674;2022-12-07T07:30:22;10.40;;;6.37;;
60730;SDS011;46580;52.114;11.674;2022-12-07T07:32:48;10.50;;;6.87;;
60730;SDS011;46580;52.114;11.674;2022-12-07T07:35:13;9.73;;;6.07;;
60730;SDS011;46580;52.114;11.674;2022-12-07T07:37:39;11.43;;;6.53;;
60730;SDS011;46580;52.114;11.674;2022-12-07T07:40:05;16.23;;;7.80;;
60730;SDS011;46580;52.114;11.674;2022-12-07T07:42:31;11.53;;;7.33;;
60730;SDS011;46580;52.114;11.674;2022-12-07T07:44:56;15.03;;;6.70;;
60730;SDS011;46580;52.114;11.674;2022-12-07T07:47:21;9.40;;;6.63;;
60730;SDS011;46580;52.114;11.674;2022-12-07T07:49:49;11.40;;;7.00;;
60730;SDS011;46580;52.114;11.674;2022-12-07T07:52:17;11.37;;;7.03;;
60730;SDS011;46580;52.114;11.674;2022-12-07T07:54:42;9.17;;;5.97;;
60730;SDS011;46580;52.114;11.674;2022-12-07T07:57:07;10.47;;;7.07;;
60730;SDS011;46580;52.114;11.674;2022-12-07T07:59:33;10.60;;;6.67;;
60730;SDS011;46580;52.114;11.674;2022-12-07T08:01:58;11.37;;;6.80;;
60730;SDS011;46580;52.114;11.674;2022-12-07T08:04:24;9.77;;;6.43;;
60730;SDS011;46580;52.114;11.674;2022-12-07T08:06:49;9.20;;;6.30;;
60730;SDS011;46580;52.114;11.674;2022-12-07T08:09:14;14.83;;;6.93;;
60730;SDS011;46580;52.114;11.674;2022-12-07T08:11:40;10.70;;;6.93;;
60730;SDS011;46580;52.114;11.674;2022-12-07T08:14:05;8.77;;;6.10;;
60730;SDS011;46580;52.114;11.674;2022-12-07T08:16:31;11.03;;;6.63;;
60730;SDS011;46580;52.114;11.674;2022-12-07T08:18:56;11.63;;;6.83;;
60730;SDS011;46580;52.114;11.674;2022-12-07T08:21:21;12.33;;;7.23;;
60730;SDS011;46580;52.114;11.674;2022-12-07T08:23:47;12.70;;;6.77;;
60730;SDS011;46580;52.114;11.674;2022-12-07T08:26:13;10.73;;;6.40;;
60730;SDS011;46580;52.114;11.674;2022-12-07T08:28:40;10.70;;;7.33;;
60730;SDS011;46580;52.114;11.674;2022-12-07T08:31:07;9.20;;;6.43;;
60730;SDS011;46580;52.114;11.674;2022-12-07T08:33:35;11.43;;;7.27;;
60730;SDS011;46580;52.114;11.674;2022-12-07T08:36:04;12.40;;;7.47;;
60730;SDS011;46580;52.114;11.674;2022-12-07T08:38:31;11.33;;;7.30;;
60730;SDS011;46580;52.114;11.674;2022-12-07T08:40:57;13.03;;;7.20;;
60730;SDS011;46580;52.114;11.674;2022-12-07T08:43:24;13.53;;;7.77;;
60730;SDS011;46580;52.114;11.674;2022-12-07T08:46:03;12.50;;;7.47;;
60730;SDS011;46580;52.114;11.674;2022-12-07T08:48:29;14.30;;;8.60;;
60730;SDS011;46580;52.114;11.674;2022-12-07T08:50:55;14.03;;;8.73;;
60730;SDS011;46580;52.114;11.674;2022-12-07T08:53:20;13.27;;;8.13;;
60730;SDS011;46580;52.114;11.674;2022-12-07T08:55:46;10.77;;;6.40;;
60730;SDS011;46580;52.114;11.674;2022-12-07T08:58:13;8.97;;;6.10;;
60730;SDS011;46580;52.114;11.674;2022-12-07T09:00:38;9.87;;;5.10;;
60730;SDS011;46580;52.114;11.674;2022-12-07T09:03:04;7.30;;;4.03;;
60730;SDS011;46580;52.114;11.674;2022-12-07T09:05:29;4.60;;;3.07;;
60730;SDS011;46580;52.114;11.674;2022-12-07T09:07:55;4.50;;;2.40;;
60730;SDS011;46580;52.114;11.674;2022-12-07T09:10:24;4.60;;;2.97;;
60730;SDS011;46580;52.114;11.674;2022-12-07T09:12:50;4.83;;;3.33;;
60730;SDS011;46580;52.114;11.674;2022-12-07T09:15:16;11.43;;;4.77;;
60730;SDS011;46580;52.114;11.674;2022-12-07T09:17:42;6.03;;;3.47;;
60730;SDS011;46580;52.114;11.674;2022-12-07T09:20:07;10.57;;;3.90;;
60730;SDS011;46580;52.114;11.674;2022-12-07T09:22:33;4.97;;;3.07;;
60730;SDS011;46580;52.114;11.674;2022-12-07T09:24:59;5.67;;;3.40;;
60730;SDS011;46580;52.114;11.674;2022-12-07T09:27:25;5.10;;;3.40;;
60730;SDS011;46580;52.114;11.674;2022-12-07T09:29:51;6.37;;;3.57;;
60730;SDS011;46580;52.114;11.674;2022-12-07T09:32:16;4.77;;;3.50;;
60730;SDS011;46580;52.114;11.674;2022-12-07T09:34:42;7.63;;;3.30;;
60730;SDS011;46580;52.114;11.674;2022-12-07T09:37:07;5.70;;;3.20;;
60730;SDS011;46580;52.114;11.674;2022-12-07T09:39:34;4.43;;;3.20;;
60730;SDS011;46580;52.114;11.674;2022-12-07T09:41:59;3.53;;;2.50;;
60730;SDS011;46580;52.114;11.674;2022-12-07T09:44:29;6.57;;;2.90;;
60730;SDS011;46580;52.114;11.674;2022-12-07T09:46:55;4.93;;;2.43;;
60730;SDS011;46580;52.114;11.674;2022-12-07T09:49:22;7.27;;;3.00;;
60730;SDS011;46580;52.114;11.674;2022-12-07T09:54:53;7.27;;;3.40;;
60730;SDS011;46580;52.114;11.674;2022-12-07T09:57:28;6.63;;;3.37;;
60730;SDS011;46580;52.114;11.674;2022-12-07T10:00:18;6.27;;;3.37;;
60730;SDS011;46580;52.114;11.674;2022-12-07T10:02:46;5.90;;;3.83;;
60730;SDS011;46580;52.114;11.674;2022-12-07T10:05:18;5.77;;;4.00;;
60730;SDS011;46580;52.114;11.674;2022-12-07T10:07:47;5.53;;;3.80;;
60730;SDS011;46580;52.114;11.674;2022-12-07T10:10:13;6.93;;;4.70;;
60730;SDS011;46580;52.114;11.674;2022-12-07T10:15:22;7.60;;;4.70;;
60730;SDS011;46580;52.114;11.674;2022-12-07T10:17:48;6.67;;;4.53;;
60730;SDS011;46580;52.114;11.674;2022-12-07T10:23:04;6.10;;;4.63;;
60730;SDS011;46580;52.114;11.674;2022-12-07T10:25:34;9.67;;;4.97;;
60730;SDS011;46580;52.114;11.674;2022-12-07T10:28:02;9.47;;;5.70;;
60730;SDS011;46580;52.114;11.674;2022-12-07T10:33:55;7.13;;;4.40;;
60730;SDS011;46580;52.114;11.674;2022-12-07T10:36:16;7.03;;;3.57;;
60730;SDS011;46580;52.114;11.674;2022-12-07T10:38:59;9.07;;;4.33;;
60730;SDS011;46580;52.114;11.674;2022-12-07T10:41:35;8.97;;;3.77;;
60730;SDS011;46580;52.114;11.674;2022-12-07T10:44:01;7.97;;;3.50;;
60730;SDS011;46580;52.114;11.674;2022-12-07T10:46:46;10.00;;;4.10;;
60730;SDS011;46580;52.114;11.674;2022-12-07T10:59:53;5.70;;;3.20;;
60730;SDS011;46580;52.114;11.674;2022-12-07T11:04:54;4.97;;;3.03;;
60730;SDS011;46580;52.114;11.674;2022-12-07T11:07:38;4.77;;;2.90;;
60730;SDS011;46580;52.114;11.674;2022-12-07T11:12:46;6.73;;;2.70;;
60730;SDS011;46580;52.114;11.674;2022-12-07T11:17:56;3.60;;;2.83;;
60730;SDS011;46580;52.114;11.674;2022-12-07T11:26:10;5.10;;;3.70;;
60730;SDS011;46580;52.114;11.674;2022-12-07T11:31:50;5.37;;;3.20;;
60730;SDS011;46580;52.114;11.674;2022-12-07T11:37:10;4.20;;;3.00;;
60730;SDS011;46580;52.114;11.674;2022-12-07T11:42:25;5.00;;;3.13;;
60730;SDS011;46580;52.114;11.674;2022-12-07T11:44:53;10.83;;;3.60;;
60730;SDS011;46580;52.114;11.674;2022-12-07T11:47:27;9.03;;;3.73;;
60730;SDS011;46580;52.114;11.674;2022-12-07T11:52:27;6.43;;;3.90;;
60730;SDS011;46580;52.114;11.674;2022-12-07T11:55:05;5.87;;;3.07;;
60730;SDS011;46580;52.114;11.674;2022-12-07T11:57:45;5.47;;;3.17;;
60730;SDS011;46580;52.114;11.674;2022-12-07T12:00:18;10.93;;;3.47;;
60730;SDS011;46580;52.114;11.674;2022-12-07T12:02:56;7.70;;;2.47;;
60730;SDS011;46580;52.114;11.674;2022-12-07T12:05:25;4.70;;;2.80;;
60730;SDS011;46580;52.114;11.674;2022-12-07T12:08:10;9.97;;;3.00;;
60730;SDS011;46580;52.114;11.674;2022-12-07T12:13:43;2.33;;;1.90;;
60730;SDS011;46580;52.114;11.674;2022-12-07T12:16:19;2.73;;;1.60;;
60730;SDS011;46580;52.114;11.674;2022-12-07T12:21:26;5.27;;;1.70;;
60730;SDS011;46580;52.114;11.674;2022-12-07T12:24:09;6.60;;;2.07;;
60730;SDS011;46580;52.114;11.674;2022-12-07T12:26:39;6.67;;;2.10;;
60730;SDS011;46580;52.114;11.674;2022-12-07T12:29:27;4.70;;;1.60;;
60730;SDS011;46580;52.114;11.674;2022-12-07T12:32:06;4.27;;;2.23;;
60730;SDS011;46580;52.114;11.674;2022-12-07T12:34:40;4.87;;;2.10;;
60730;SDS011;46580;52.114;11.674;2022-12-07T12:43:38;3.67;;;1.93;;
60730;SDS011;46580;52.114;11.674;2022-12-07T12:46:02;3.87;;;2.27;;
60730;SDS011;46580;52.114;11.674;2022-12-07T12:55:20;9.07;;;4.80;;
60730;SDS011;46580;52.114;11.674;2022-12-07T12:58:21;3.50;;;2.20;;
60730;SDS011;46580;52.114;11.674;2022-12-07T13:00:47;5.63;;;2.30;;
60730;SDS011;46580;52.114;11.674;2022-12-07T13:03:35;4.67;;;2.50;;
60730;SDS011;46580;52.114;11.674;2022-12-07T13:06:16;3.10;;;2.77;;
60730;SDS011;46580;52.114;11.674;2022-12-07T13:11:43;6.53;;;2.47;;
60730;SDS011;46580;52.114;11.674;2022-12-07T13:19:58;4.00;;;2.50;;
60730;SDS011;46580;52.114;11.674;2022-12-07T13:24:58;6.67;;;1.33;;
60730;SDS011;46580;52.114;11.674;2022-12-07T13:27:28;1.13;;;0.80;;
60730;SDS011;46580;52.114;11.674;2022-12-07T13:29:56;4.20;;;1.60;;
60730;SDS011;46580;52.114;11.674;2022-12-07T13:32:25;6.93;;;1.00;;
60730;SDS011;46580;52.114;11.674;2022-12-07T13:34:51;1.97;;;0.73;;
60730;SDS011;46580;52.114;11.674;2022-12-07T13:39:52;1.90;;;0.70;;
60730;SDS011;46580;52.114;11.674;2022-12-07T13:42:25;7.23;;;0.90;;
60730;SDS011;46580;52.114;11.674;2022-12-07T13:44:54;3.00;;;1.20;;
60730;SDS011;46580;52.114;11.674;2022-12-07T13:47:41;1.70;;;1.30;;
60730;SDS011;46580;52.114;11.674;2022-12-07T13:50:25;3.13;;;1.63;;
60730;SDS011;46580;52.114;11.674;2022-12-07T13:52:57;6.37;;;2.43;;
60730;SDS011;46580;52.114;11.674;2022-12-07T13:55:23;5.30;;;2.30;;
60730;SDS011;46580;52.114;11.674;2022-12-07T13:57:50;4.40;;;2.07;;
60730;SDS011;46580;52.114;11.674;2022-12-07T14:00:20;4.03;;;2.27;;
60730;SDS011;46580;52.114;11.674;2022-12-07T14:05:27;4.43;;;2.23;;
60730;SDS011;46580;52.114;11.674;2022-12-07T14:07:58;4.10;;;2.23;;
60730;SDS011;46580;52.114;11.674;2022-12-07T14:10:29;4.90;;;2.37;;
60730;SDS011;46580;52.114;11.674;2022-12-07T14:12:58;5.23;;;2.67;;
60730;SDS011;46580;52.114;11.674;2022-12-07T14:15:28;5.77;;;2.37;;
60730;SDS011;46580;52.114;11.674;2022-12-07T14:17:56;5.03;;;2.87;;
60730;SDS011;46580;52.114;11.674;2022-12-07T14:20:35;4.80;;;2.57;;
60730;SDS011;46580;52.114;11.674;2022-12-07T14:23:01;4.80;;;2.80;;
60730;SDS011;46580;52.114;11.674;2022-12-07T14:25:44;4.87;;;2.60;;
60730;SDS011;46580;52.114;11.674;2022-12-07T14:28:32;8.13;;;2.10;;
60730;SDS011;46580;52.114;11.674;2022-12-07T14:30:59;5.07;;;2.50;;
60730;SDS011;46580;52.114;11.674;2022-12-07T14:33:26;5.87;;;2.50;;
60730;SDS011;46580;52.114;11.674;2022-12-07T14:35:52;5.33;;;2.90;;
60730;SDS011;46580;52.114;11.674;2022-12-07T14:38:20;4.77;;;2.30;;
60730;SDS011;46580;52.114;11.674;2022-12-07T14:40:49;4.77;;;2.27;;
60730;SDS011;46580;52.114;11.674;2022-12-07T14:43:17;4.43;;;2.07;;
60730;SDS011;46580;52.114;11.674;2022-12-07T14:45:43;7.87;;;2.73;;
60730;SDS011;46580;52.114;11.674;2022-12-07T14:48:12;5.27;;;2.73;;
60730;SDS011;46580;52.114;11.674;2022-12-07T14:50:48;5.77;;;2.43;;
60730;SDS011;46580;52.114;11.674;2022-12-07T14:53:16;3.17;;;2.30;;
60730;SDS011;46580;52.114;11.674;2022-12-07T14:55:46;5.63;;;2.10;;
60730;SDS011;46580;52.114;11.674;2022-12-07T14:58:15;8.77;;;2.40;;
60730;SDS011;46580;52.114;11.674;2022-12-07T15:00:42;6.03;;;2.20;;
60730;SDS011;46580;52.114;11.674;2022-12-07T15:03:08;6.70;;;1.83;;
60730;SDS011;46580;52.114;11.674;2022-12-07T15:05:33;4.60;;;2.07;;
60730;SDS011;46580;52.114;11.674;2022-12-07T15:07:59;3.83;;;1.83;;
60730;SDS011;46580;52.114;11.674;2022-12-07T15:10:26;3.70;;;1.87;;
60730;SDS011;46580;52.114;11.674;2022-12-07T15:12:55;5.83;;;2.30;;
60730;SDS011;46580;52.114;11.674;2022-12-07T15:15:44;5.33;;;1.67;;
60730;SDS011;46580;52.114;11.674;2022-12-07T15:18:09;6.53;;;2.00;;
60730;SDS011;46580;52.114;11.674;2022-12-07T15:20:35;7.07;;;2.10;;
60730;SDS011;46580;52.114;11.674;2022-12-07T15:23:00;6.53;;;2.17;;
60730;SDS011;46580;52.114;11.674;2022-12-07T15:25:26;3.67;;;2.20;;
60730;SDS011;46580;52.114;11.674;2022-12-07T15:27:51;4.20;;;2.20;;
60730;SDS011;46580;52.114;11.674;2022-12-07T15:30:17;3.70;;;2.20;;
60730;SDS011;46580;52.114;11.674;2022-12-07T15:32:42;5.23;;;2.40;;
60730;SDS011;46580;52.114;11.674;2022-12-07T15:35:09;6.63;;;2.20;;
60730;SDS011;46580;52.114;11.674;2022-12-07T15:37:34;12.07;;;6.23;;
60730;SDS011;46580;52.114;11.674;2022-12-07T15:39:59;5.73;;;3.43;;
60730;SDS011;46580;52.114;11.674;2022-12-07T15:42:25;6.03;;;2.87;;
60730;SDS011;46580;52.114;11.674;2022-12-07T15:44:51;8.23;;;3.60;;
60730;SDS011;46580;52.114;11.674;2022-12-07T15:47:28;6.37;;;3.70;;
60730;SDS011;46580;52.114;11.674;2022-12-07T15:49:54;7.87;;;3.23;;
60730;SDS011;46580;52.114;11.674;2022-12-07T15:52:20;6.50;;;3.40;;
60730;SDS011;46580;52.114;11.674;2022-12-07T15:54:45;9.77;;;3.80;;
60730;SDS011;46580;52.114;11.674;2022-12-07T15:57:12;7.77;;;3.63;;
60730;SDS011;46580;52.114;11.674;2022-12-07T15:59:38;9.23;;;4.03;;
60730;SDS011;46580;52.114;11.674;2022-12-07T16:02:03;4.97;;;3.77;;
60730;SDS011;46580;52.114;11.674;2022-12-07T16:04:29;6.87;;;4.53;;
60730;SDS011;46580;52.114;11.674;2022-12-07T16:06:55;9.67;;;4.77;;
60730;SDS011;46580;52.114;11.674;2022-12-07T16:09:21;7.90;;;5.13;;
60730;SDS011;46580;52.114;11.674;2022-12-07T16:11:47;6.60;;;4.10;;
60730;SDS011;46580;52.114;11.674;2022-12-07T16:14:15;8.70;;;4.57;;
60730;SDS011;46580;52.114;11.674;2022-12-07T16:16:40;4.77;;;3.50;;
60730;SDS011;46580;52.114;11.674;2022-12-07T16:19:06;6.97;;;3.80;;
60730;SDS011;46580;52.114;11.674;2022-12-07T16:21:33;3.87;;;2.67;;
60730;SDS011;46580;52.114;11.674;2022-12-07T16:23:59;8.03;;;1.83;;